sensor_id;sensor_type;location;lat;lon;timestamp;P1;durP1;ratioP1;P2;durP2;ratioP2
787;SDS011;16074;42.708;23.312;2022-08-16T00:01:19;19.67;;;17.83;;
787;SDS011;16074;42.708;23.312;2022-08-16T00:03:52;18.53;;;16.57;;
787;SDS011;16074;42.708;23.312;2022-08-16T00:06:20;20.77;;;18.80;;
787;SDS011;16074;42.708;23.312;2022-08-16T00:08:49;19.30;;;17.50;;
787;SDS011;16074;42.708;23.312;2022-08-16T00:11:19;20.23;;;18.40;;
787;SDS011;16074;42.708;23.312;2022-08-16T00:13:49;22.10;;;20.00;;
787;SDS011;16074;42.708;23.312;2022-08-16T00:16:21;18.77;;;17.17;;
787;SDS011;16074;42.708;23.312;2022-08-16T00:21:39;19.30;;;17.60;;
787;SDS011;16074;42.708;23.312;2022-08-16T00:24:08;19.83;;;18.13;;
787;SDS011;16074;42.708;23.312;2022-08-16T00:26:40;19.37;;;17.53;;
787;SDS011;16074;42.708;23.312;2022-08-16T00:29:11;18.23;;;16.57;;
787;SDS011;16074;42.708;23.312;2022-08-16T00:31:43;18.47;;;16.77;;
787;SDS011;16074;42.708;23.312;2022-08-16T00:34:27;17.73;;;15.97;;
787;SDS011;16074;42.708;23.312;2022-08-16T00:37:17;16.47;;;15.03;;
787;SDS011;16074;42.708;23.312;2022-08-16T00:39:46;16.10;;;14.80;;
787;SDS011;16074;42.708;23.312;2022-08-16T00:42:27;17.00;;;15.50;;
787;SDS011;16074;42.708;23.312;2022-08-16T00:45:03;16.80;;;15.33;;
787;SDS011;16074;42.708;23.312;2022-08-16T00:47:36;17.20;;;15.70;;
787;SDS011;16074;42.708;23.312;2022-08-16T00:50:15;17.93;;;16.13;;
787;SDS011;16074;42.708;23.312;2022-08-16T00:52:45;16.53;;;15.13;;
787;SDS011;16074;42.708;23.312;2022-08-16T00:55:18;16.90;;;15.20;;
787;SDS011;16074;42.708;23.312;2022-08-16T00:57:51;18.20;;;16.40;;
787;SDS011;16074;42.708;23.312;2022-08-16T01:00:27;18.20;;;16.60;;
787;SDS011;16074;42.708;23.312;2022-08-16T01:02:59;18.47;;;16.77;;
787;SDS011;16074;42.708;23.312;2022-08-16T01:05:38;19.03;;;17.30;;
787;SDS011;16074;42.708;23.312;2022-08-16T01:08:08;18.63;;;17.00;;
787;SDS011;16074;42.708;23.312;2022-08-16T01:10:58;17.40;;;15.80;;
787;SDS011;16074;42.708;23.312;2022-08-16T01:13:30;18.87;;;17.07;;
787;SDS011;16074;42.708;23.312;2022-08-16T01:16:02;19.20;;;17.40;;
787;SDS011;16074;42.708;23.312;2022-08-16T01:18:37;19.80;;;17.97;;
787;SDS011;16074;42.708;23.312;2022-08-16T01:21:21;19.73;;;17.77;;
787;SDS011;16074;42.708;23.312;2022-08-16T01:24:05;18.67;;;16.97;;
787;SDS011;16074;42.708;23.312;2022-08-16T01:27:04;17.60;;;16.00;;
787;SDS011;16074;42.708;23.312;2022-08-16T01:29:36;18.60;;;17.00;;
787;SDS011;16074;42.708;23.312;2022-08-16T01:32:25;19.73;;;17.93;;
787;SDS011;16074;42.708;23.312;2022-08-16T01:34:59;20.03;;;18.00;;
787;SDS011;16074;42.708;23.312;2022-08-16T01:37:29;18.57;;;16.93;;
787;SDS011;16074;42.708;23.312;2022-08-16T01:40:11;19.10;;;17.30;;
787;SDS011;16074;42.708;23.312;2022-08-16T01:42:41;20.50;;;18.50;;
787;SDS011;16074;42.708;23.312;2022-08-16T01:45:14;18.07;;;16.43;;
787;SDS011;16074;42.708;23.312;2022-08-16T01:47:46;18.77;;;17.17;;
787;SDS011;16074;42.708;23.312;2022-08-16T01:50:19;20.83;;;19.10;;
787;SDS011;16074;42.708;23.312;2022-08-16T01:53:09;20.00;;;17.93;;
787;SDS011;16074;42.708;23.312;2022-08-16T01:55:58;18.60;;;17.07;;
787;SDS011;16074;42.708;23.312;2022-08-16T01:58:30;18.50;;;16.90;;
787;SDS011;16074;42.708;23.312;2022-08-16T02:01:03;20.53;;;18.80;;
787;SDS011;16074;42.708;23.312;2022-08-16T02:03:34;18.47;;;16.87;;
787;SDS011;16074;42.708;23.312;2022-08-16T02:06:05;20.00;;;18.27;;
787;SDS011;16074;42.708;23.312;2022-08-16T02:08:34;19.00;;;17.30;;
787;SDS011;16074;42.708;23.312;2022-08-16T02:11:06;20.00;;;18.10;;
787;SDS011;16074;42.708;23.312;2022-08-16T02:13:36;19.20;;;17.47;;
787;SDS011;16074;42.708;23.312;2022-08-16T02:16:09;17.27;;;15.57;;
787;SDS011;16074;42.708;23.312;2022-08-16T02:18:44;19.97;;;17.93;;
787;SDS011;16074;42.708;23.312;2022-08-16T02:21:13;15.87;;;14.60;;
787;SDS011;16074;42.708;23.312;2022-08-16T02:23:57;17.47;;;15.80;;
787;SDS011;16074;42.708;23.312;2022-08-16T02:26:26;15.70;;;14.30;;
787;SDS011;16074;42.708;23.312;2022-08-16T02:29:00;18.90;;;17.20;;
787;SDS011;16074;42.708;23.312;2022-08-16T02:31:28;17.20;;;15.40;;
787;SDS011;16074;42.708;23.312;2022-08-16T02:34:17;18.03;;;16.33;;
787;SDS011;16074;42.708;23.312;2022-08-16T02:37:00;19.13;;;17.13;;
787;SDS011;16074;42.708;23.312;2022-08-16T02:39:29;21.40;;;19.20;;
787;SDS011;16074;42.708;23.312;2022-08-16T02:42:00;20.83;;;18.83;;
787;SDS011;16074;42.708;23.312;2022-08-16T02:44:29;21.90;;;20.00;;
787;SDS011;16074;42.708;23.312;2022-08-16T02:46:58;19.97;;;18.17;;
787;SDS011;16074;42.708;23.312;2022-08-16T02:49:28;22.13;;;20.03;;
787;SDS011;16074;42.708;23.312;2022-08-16T02:52:16;23.83;;;21.43;;
787;SDS011;16074;42.708;23.312;2022-08-16T02:55:00;24.83;;;22.33;;
787;SDS011;16074;42.708;23.312;2022-08-16T02:57:31;25.57;;;23.07;;
787;SDS011;16074;42.708;23.312;2022-08-16T02:59:59;26.37;;;23.87;;
787;SDS011;16074;42.708;23.312;2022-08-16T03:02:53;25.43;;;22.93;;
787;SDS011;16074;42.708;23.312;2022-08-16T03:05:22;26.73;;;24.10;;
787;SDS011;16074;42.708;23.312;2022-08-16T03:07:57;27.87;;;24.97;;
787;SDS011;16074;42.708;23.312;2022-08-16T03:10:29;31.10;;;25.27;;
787;SDS011;16074;42.708;23.312;2022-08-16T03:13:02;27.90;;;25.10;;
787;SDS011;16074;42.708;23.312;2022-08-16T03:15:39;27.83;;;23.97;;
787;SDS011;16074;42.708;23.312;2022-08-16T03:18:08;28.03;;;25.30;;
787;SDS011;16074;42.708;23.312;2022-08-16T03:20:45;30.47;;;27.57;;
787;SDS011;16074;42.708;23.312;2022-08-16T03:23:21;26.43;;;23.83;;
787;SDS011;16074;42.708;23.312;2022-08-16T03:25:50;26.53;;;24.13;;
787;SDS011;16074;42.708;23.312;2022-08-16T03:28:19;30.67;;;27.50;;
787;SDS011;16074;42.708;23.312;2022-08-16T03:30:50;28.27;;;25.40;;
787;SDS011;16074;42.708;23.312;2022-08-16T03:33:21;30.83;;;27.80;;
787;SDS011;16074;42.708;23.312;2022-08-16T03:35:53;30.57;;;27.47;;
787;SDS011;16074;42.708;23.312;2022-08-16T03:38:45;30.63;;;27.30;;
787;SDS011;16074;42.708;23.312;2022-08-16T03:41:16;29.63;;;24.90;;
787;SDS011;16074;42.708;23.312;2022-08-16T03:43:55;26.30;;;23.80;;
787;SDS011;16074;42.708;23.312;2022-08-16T03:46:27;26.20;;;23.80;;
787;SDS011;16074;42.708;23.312;2022-08-16T03:49:25;24.60;;;22.00;;
787;SDS011;16074;42.708;23.312;2022-08-16T03:52:05;25.07;;;22.67;;
787;SDS011;16074;42.708;23.312;2022-08-16T03:54:36;24.03;;;21.83;;
787;SDS011;16074;42.708;23.312;2022-08-16T03:57:19;28.63;;;25.73;;
787;SDS011;16074;42.708;23.312;2022-08-16T03:59:52;26.00;;;23.40;;
787;SDS011;16074;42.708;23.312;2022-08-16T04:02:21;28.70;;;25.50;;
787;SDS011;16074;42.708;23.312;2022-08-16T04:05:00;28.00;;;25.57;;
787;SDS011;16074;42.708;23.312;2022-08-16T04:07:30;28.50;;;25.70;;
787;SDS011;16074;42.708;23.312;2022-08-16T04:10:00;29.80;;;26.97;;
787;SDS011;16074;42.708;23.312;2022-08-16T04:12:49;26.70;;;24.30;;
787;SDS011;16074;42.708;23.312;2022-08-16T04:15:23;26.47;;;23.70;;
787;SDS011;16074;42.708;23.312;2022-08-16T04:18:16;27.30;;;24.67;;
787;SDS011;16074;42.708;23.312;2022-08-16T04:20:45;27.77;;;25.17;;
787;SDS011;16074;42.708;23.312;2022-08-16T04:23:14;24.87;;;22.53;;
787;SDS011;16074;42.708;23.312;2022-08-16T04:25:44;25.50;;;22.90;;
787;SDS011;16074;42.708;23.312;2022-08-16T04:28:13;23.93;;;21.73;;
787;SDS011;16074;42.708;23.312;2022-08-16T04:31:03;25.53;;;23.07;;
787;SDS011;16074;42.708;23.312;2022-08-16T04:33:38;25.53;;;23.33;;
787;SDS011;16074;42.708;23.312;2022-08-16T04:36:19;26.40;;;24.03;;
787;SDS011;16074;42.708;23.312;2022-08-16T04:38:47;27.77;;;25.07;;
787;SDS011;16074;42.708;23.312;2022-08-16T04:41:18;27.57;;;24.87;;
787;SDS011;16074;42.708;23.312;2022-08-16T04:44:03;28.63;;;25.63;;
787;SDS011;16074;42.708;23.312;2022-08-16T04:46:52;29.30;;;26.30;;
787;SDS011;16074;42.708;23.312;2022-08-16T04:49:27;27.43;;;24.93;;
787;SDS011;16074;42.708;23.312;2022-08-16T04:52:12;27.10;;;24.60;;
787;SDS011;16074;42.708;23.312;2022-08-16T04:55:00;27.80;;;24.50;;
787;SDS011;16074;42.708;23.312;2022-08-16T04:57:29;27.70;;;25.20;;
787;SDS011;16074;42.708;23.312;2022-08-16T04:59:57;29.50;;;26.60;;
787;SDS011;16074;42.708;23.312;2022-08-16T05:02:49;28.57;;;25.77;;
787;SDS011;16074;42.708;23.312;2022-08-16T05:05:24;30.93;;;27.73;;
787;SDS011;16074;42.708;23.312;2022-08-16T05:08:00;28.00;;;25.43;;
787;SDS011;16074;42.708;23.312;2022-08-16T05:10:58;29.67;;;26.87;;
787;SDS011;16074;42.708;23.312;2022-08-16T05:13:31;31.93;;;28.90;;
787;SDS011;16074;42.708;23.312;2022-08-16T05:16:11;30.80;;;27.70;;
787;SDS011;16074;42.708;23.312;2022-08-16T05:18:55;31.80;;;28.50;;
787;SDS011;16074;42.708;23.312;2022-08-16T05:21:28;30.60;;;27.70;;
787;SDS011;16074;42.708;23.312;2022-08-16T05:24:07;30.00;;;27.03;;
787;SDS011;16074;42.708;23.312;2022-08-16T05:26:37;27.73;;;25.03;;
787;SDS011;16074;42.708;23.312;2022-08-16T05:29:10;29.53;;;26.43;;
787;SDS011;16074;42.708;23.312;2022-08-16T05:31:47;28.33;;;25.67;;
787;SDS011;16074;42.708;23.312;2022-08-16T05:34:21;30.07;;;27.17;;
787;SDS011;16074;42.708;23.312;2022-08-16T05:36:52;30.07;;;27.20;;
787;SDS011;16074;42.708;23.312;2022-08-16T05:39:30;31.10;;;28.20;;
787;SDS011;16074;42.708;23.312;2022-08-16T05:42:03;32.77;;;29.00;;
787;SDS011;16074;42.708;23.312;2022-08-16T05:44:35;29.67;;;26.83;;
787;SDS011;16074;42.708;23.312;2022-08-16T05:47:05;28.03;;;25.43;;
787;SDS011;16074;42.708;23.312;2022-08-16T05:49:36;29.73;;;26.90;;
787;SDS011;16074;42.708;23.312;2022-08-16T05:52:09;31.77;;;25.97;;
787;SDS011;16074;42.708;23.312;2022-08-16T05:54:41;30.97;;;27.93;;
787;SDS011;16074;42.708;23.312;2022-08-16T05:57:24;27.90;;;25.10;;
787;SDS011;16074;42.708;23.312;2022-08-16T06:00:00;29.67;;;26.83;;
787;SDS011;16074;42.708;23.312;2022-08-16T06:02:44;28.30;;;25.50;;
787;SDS011;16074;42.708;23.312;2022-08-16T06:05:55;31.83;;;27.30;;
787;SDS011;16074;42.708;23.312;2022-08-16T06:08:27;29.43;;;26.83;;
787;SDS011;16074;42.708;23.312;2022-08-16T06:11:00;29.70;;;26.93;;
787;SDS011;16074;42.708;23.312;2022-08-16T06:13:36;25.90;;;23.50;;
787;SDS011;16074;42.708;23.312;2022-08-16T06:16:11;27.90;;;25.23;;
787;SDS011;16074;42.708;23.312;2022-08-16T06:18:46;25.33;;;22.63;;
787;SDS011;16074;42.708;23.312;2022-08-16T06:21:17;25.83;;;23.23;;
787;SDS011;16074;42.708;23.312;2022-08-16T06:23:56;26.10;;;23.57;;
787;SDS011;16074;42.708;23.312;2022-08-16T06:26:30;25.27;;;22.87;;
787;SDS011;16074;42.708;23.312;2022-08-16T06:29:04;27.40;;;24.80;;
787;SDS011;16074;42.708;23.312;2022-08-16T06:31:36;24.77;;;22.53;;
787;SDS011;16074;42.708;23.312;2022-08-16T06:34:16;27.27;;;24.67;;
787;SDS011;16074;42.708;23.312;2022-08-16T06:37:08;27.60;;;24.80;;
787;SDS011;16074;42.708;23.312;2022-08-16T06:39:38;25.00;;;22.87;;
787;SDS011;16074;42.708;23.312;2022-08-16T06:42:37;27.90;;;25.10;;
787;SDS011;16074;42.708;23.312;2022-08-16T06:45:37;24.10;;;21.73;;
787;SDS011;16074;42.708;23.312;2022-08-16T06:48:17;27.00;;;24.17;;
787;SDS011;16074;42.708;23.312;2022-08-16T06:50:59;26.13;;;23.50;;
787;SDS011;16074;42.708;23.312;2022-08-16T06:53:31;25.53;;;23.23;;
787;SDS011;16074;42.708;23.312;2022-08-16T06:56:02;24.97;;;22.30;;
787;SDS011;16074;42.708;23.312;2022-08-16T06:58:58;24.13;;;21.83;;
787;SDS011;16074;42.708;23.312;2022-08-16T07:01:33;23.17;;;21.07;;
787;SDS011;16074;42.708;23.312;2022-08-16T07:04:12;24.40;;;22.20;;
787;SDS011;16074;42.708;23.312;2022-08-16T07:07:00;19.27;;;17.67;;
787;SDS011;16074;42.708;23.312;2022-08-16T07:09:30;20.70;;;18.67;;
787;SDS011;16074;42.708;23.312;2022-08-16T07:12:00;20.07;;;17.73;;
787;SDS011;16074;42.708;23.312;2022-08-16T07:14:33;18.60;;;16.80;;
787;SDS011;16074;42.708;23.312;2022-08-16T07:17:03;19.80;;;18.00;;
787;SDS011;16074;42.708;23.312;2022-08-16T07:19:42;18.77;;;17.17;;
787;SDS011;16074;42.708;23.312;2022-08-16T07:22:40;19.53;;;17.73;;
787;SDS011;16074;42.708;23.312;2022-08-16T07:25:24;19.73;;;17.87;;
787;SDS011;16074;42.708;23.312;2022-08-16T07:27:52;17.90;;;16.33;;
787;SDS011;16074;42.708;23.312;2022-08-16T07:30:24;16.27;;;14.83;;
787;SDS011;16074;42.708;23.312;2022-08-16T07:33:21;17.57;;;15.80;;
787;SDS011;16074;42.708;23.312;2022-08-16T07:36:10;15.90;;;14.37;;
787;SDS011;16074;42.708;23.312;2022-08-16T07:38:48;15.63;;;14.27;;
787;SDS011;16074;42.708;23.312;2022-08-16T07:41:19;16.50;;;15.20;;
787;SDS011;16074;42.708;23.312;2022-08-16T07:43:52;17.17;;;15.77;;
787;SDS011;16074;42.708;23.312;2022-08-16T07:46:23;16.87;;;15.47;;
787;SDS011;16074;42.708;23.312;2022-08-16T07:49:15;15.43;;;14.13;;
787;SDS011;16074;42.708;23.312;2022-08-16T07:51:44;17.77;;;16.17;;
787;SDS011;16074;42.708;23.312;2022-08-16T07:54:14;16.50;;;15.30;;
787;SDS011;16074;42.708;23.312;2022-08-16T07:56:52;16.53;;;15.23;;
787;SDS011;16074;42.708;23.312;2022-08-16T07:59:22;13.73;;;12.70;;
787;SDS011;16074;42.708;23.312;2022-08-16T08:02:11;13.40;;;12.30;;
787;SDS011;16074;42.708;23.312;2022-08-16T08:04:47;13.40;;;12.20;;
787;SDS011;16074;42.708;23.312;2022-08-16T08:07:15;12.33;;;11.37;;
787;SDS011;16074;42.708;23.312;2022-08-16T08:09:47;12.07;;;11.17;;
787;SDS011;16074;42.708;23.312;2022-08-16T08:12:17;9.77;;;8.93;;
787;SDS011;16074;42.708;23.312;2022-08-16T08:15:02;10.20;;;9.43;;
787;SDS011;16074;42.708;23.312;2022-08-16T08:17:36;9.03;;;8.23;;
787;SDS011;16074;42.708;23.312;2022-08-16T08:20:11;9.90;;;9.20;;
787;SDS011;16074;42.708;23.312;2022-08-16T08:22:52;9.43;;;8.73;;
787;SDS011;16074;42.708;23.312;2022-08-16T08:25:32;9.17;;;8.43;;
787;SDS011;16074;42.708;23.312;2022-08-16T08:28:22;14.57;;;7.77;;
787;SDS011;16074;42.708;23.312;2022-08-16T08:30:56;8.90;;;8.30;;
787;SDS011;16074;42.708;23.312;2022-08-16T08:33:30;8.37;;;7.87;;
787;SDS011;16074;42.708;23.312;2022-08-16T08:36:01;9.07;;;8.47;;
787;SDS011;16074;42.708;23.312;2022-08-16T08:38:34;9.43;;;8.73;;
787;SDS011;16074;42.708;23.312;2022-08-16T08:41:14;8.70;;;8.10;;
787;SDS011;16074;42.708;23.312;2022-08-16T08:43:49;9.53;;;8.93;;
787;SDS011;16074;42.708;23.312;2022-08-16T08:46:19;9.63;;;8.83;;
787;SDS011;16074;42.708;23.312;2022-08-16T08:48:51;8.87;;;8.17;;
787;SDS011;16074;42.708;23.312;2022-08-16T08:51:28;9.00;;;8.40;;
787;SDS011;16074;42.708;23.312;2022-08-16T08:54:03;10.07;;;9.37;;
787;SDS011;16074;42.708;23.312;2022-08-16T08:56:33;8.77;;;8.17;;
787;SDS011;16074;42.708;23.312;2022-08-16T08:59:16;8.30;;;7.70;;
787;SDS011;16074;42.708;23.312;2022-08-16T09:01:47;9.07;;;8.47;;
787;SDS011;16074;42.708;23.312;2022-08-16T09:04:33;9.47;;;8.67;;
787;SDS011;16074;42.708;23.312;2022-08-16T09:07:04;7.90;;;7.40;;
787;SDS011;16074;42.708;23.312;2022-08-16T09:09:35;7.60;;;7.20;;
787;SDS011;16074;42.708;23.312;2022-08-16T09:12:09;9.37;;;8.77;;
787;SDS011;16074;42.708;23.312;2022-08-16T09:15:03;10.13;;;9.17;;
787;SDS011;16074;42.708;23.312;2022-08-16T09:17:37;9.63;;;8.87;;
787;SDS011;16074;42.708;23.312;2022-08-16T09:20:21;9.10;;;8.50;;
787;SDS011;16074;42.708;23.312;2022-08-16T09:22:52;7.63;;;7.17;;
787;SDS011;16074;42.708;23.312;2022-08-16T09:25:27;8.63;;;8.00;;
787;SDS011;16074;42.708;23.312;2022-08-16T09:28:03;9.33;;;8.63;;
787;SDS011;16074;42.708;23.312;2022-08-16T09:30:36;9.00;;;8.30;;
787;SDS011;16074;42.708;23.312;2022-08-16T09:33:11;8.70;;;8.10;;
787;SDS011;16074;42.708;23.312;2022-08-16T09:35:46;8.30;;;7.80;;
787;SDS011;16074;42.708;23.312;2022-08-16T09:38:19;10.03;;;9.13;;
787;SDS011;16074;42.708;23.312;2022-08-16T09:40:58;8.83;;;8.20;;
787;SDS011;16074;42.708;23.312;2022-08-16T09:43:28;8.80;;;8.30;;
787;SDS011;16074;42.708;23.312;2022-08-16T09:46:18;8.90;;;8.30;;
787;SDS011;16074;42.708;23.312;2022-08-16T09:49:06;9.50;;;8.70;;
787;SDS011;16074;42.708;23.312;2022-08-16T09:51:37;9.33;;;8.63;;
787;SDS011;16074;42.708;23.312;2022-08-16T09:54:06;9.37;;;8.47;;
787;SDS011;16074;42.708;23.312;2022-08-16T09:56:43;9.77;;;9.00;;
787;SDS011;16074;42.708;23.312;2022-08-16T09:59:19;9.30;;;8.60;;
787;SDS011;16074;42.708;23.312;2022-08-16T10:01:49;9.00;;;8.30;;
787;SDS011;16074;42.708;23.312;2022-08-16T10:04:20;8.67;;;8.17;;
787;SDS011;16074;42.708;23.312;2022-08-16T10:07:01;9.37;;;8.67;;
787;SDS011;16074;42.708;23.312;2022-08-16T10:09:41;9.73;;;8.93;;
787;SDS011;16074;42.708;23.312;2022-08-16T10:12:21;13.17;;;11.90;;
787;SDS011;16074;42.708;23.312;2022-08-16T10:15:09;11.67;;;10.67;;
787;SDS011;16074;42.708;23.312;2022-08-16T10:17:44;23.90;;;19.70;;
787;SDS011;16074;42.708;23.312;2022-08-16T10:20:29;12.43;;;11.50;;
787;SDS011;16074;42.708;23.312;2022-08-16T10:23:00;10.43;;;9.50;;
787;SDS011;16074;42.708;23.312;2022-08-16T10:25:35;9.50;;;8.80;;
787;SDS011;16074;42.708;23.312;2022-08-16T10:28:26;9.87;;;9.17;;
787;SDS011;16074;42.708;23.312;2022-08-16T10:31:02;9.80;;;9.20;;
787;SDS011;16074;42.708;23.312;2022-08-16T10:33:33;10.13;;;9.33;;
787;SDS011;16074;42.708;23.312;2022-08-16T10:36:06;9.47;;;8.77;;
787;SDS011;16074;42.708;23.312;2022-08-16T10:38:38;9.13;;;8.47;;
787;SDS011;16074;42.708;23.312;2022-08-16T10:41:08;9.90;;;8.90;;
787;SDS011;16074;42.708;23.312;2022-08-16T10:43:42;9.47;;;8.87;;
787;SDS011;16074;42.708;23.312;2022-08-16T10:46:15;10.13;;;9.30;;
787;SDS011;16074;42.708;23.312;2022-08-16T10:49:06;9.77;;;8.73;;
787;SDS011;16074;42.708;23.312;2022-08-16T10:51:35;10.00;;;9.20;;
787;SDS011;16074;42.708;23.312;2022-08-16T10:54:23;8.70;;;8.00;;
787;SDS011;16074;42.708;23.312;2022-08-16T10:56:55;9.77;;;9.00;;
787;SDS011;16074;42.708;23.312;2022-08-16T10:59:24;8.33;;;7.73;;
787;SDS011;16074;42.708;23.312;2022-08-16T11:02:12;9.00;;;8.20;;
787;SDS011;16074;42.708;23.312;2022-08-16T11:05:02;10.80;;;9.80;;
787;SDS011;16074;42.708;23.312;2022-08-16T11:07:35;10.27;;;9.50;;
787;SDS011;16074;42.708;23.312;2022-08-16T11:10:20;9.30;;;8.50;;
787;SDS011;16074;42.708;23.312;2022-08-16T11:13:13;9.47;;;8.77;;
787;SDS011;16074;42.708;23.312;2022-08-16T11:16:04;9.80;;;9.10;;
787;SDS011;16074;42.708;23.312;2022-08-16T11:18:53;8.50;;;7.90;;
787;SDS011;16074;42.708;23.312;2022-08-16T11:21:37;8.20;;;7.70;;
787;SDS011;16074;42.708;23.312;2022-08-16T11:24:26;8.83;;;8.37;;
787;SDS011;16074;42.708;23.312;2022-08-16T11:27:10;8.00;;;7.50;;
787;SDS011;16074;42.708;23.312;2022-08-16T11:29:50;7.93;;;7.47;;
787;SDS011;16074;42.708;23.312;2022-08-16T11:32:21;8.97;;;8.27;;
787;SDS011;16074;42.708;23.312;2022-08-16T11:34:55;9.90;;;9.20;;
787;SDS011;16074;42.708;23.312;2022-08-16T11:37:44;9.80;;;9.00;;
787;SDS011;16074;42.708;23.312;2022-08-16T11:40:35;8.33;;;7.73;;
787;SDS011;16074;42.708;23.312;2022-08-16T11:43:09;9.43;;;8.60;;
787;SDS011;16074;42.708;23.312;2022-08-16T11:45:42;8.40;;;7.73;;
787;SDS011;16074;42.708;23.312;2022-08-16T11:48:20;12.43;;;9.30;;
787;SDS011;16074;42.708;23.312;2022-08-16T11:50:48;10.50;;;9.40;;
787;SDS011;16074;42.708;23.312;2022-08-16T11:53:18;15.50;;;13.13;;
787;SDS011;16074;42.708;23.312;2022-08-16T11:55:47;12.60;;;11.43;;
787;SDS011;16074;42.708;23.312;2022-08-16T11:58:20;14.53;;;13.10;;
787;SDS011;16074;42.708;23.312;2022-08-16T12:00:50;14.87;;;13.70;;
787;SDS011;16074;42.708;23.312;2022-08-16T12:03:20;15.87;;;14.47;;
787;SDS011;16074;42.708;23.312;2022-08-16T12:06:00;16.80;;;14.00;;
787;SDS011;16074;42.708;23.312;2022-08-16T12:08:39;16.30;;;14.90;;
787;SDS011;16074;42.708;23.312;2022-08-16T12:11:08;14.17;;;12.87;;
787;SDS011;16074;42.708;23.312;2022-08-16T12:13:37;13.60;;;12.40;;
787;SDS011;16074;42.708;23.312;2022-08-16T12:16:06;14.23;;;12.77;;
787;SDS011;16074;42.708;23.312;2022-08-16T12:18:35;13.57;;;12.37;;
787;SDS011;16074;42.708;23.312;2022-08-16T12:21:05;13.77;;;12.47;;
787;SDS011;16074;42.708;23.312;2022-08-16T12:23:35;13.60;;;12.37;;
787;SDS011;16074;42.708;23.312;2022-08-16T12:26:05;13.07;;;12.03;;
787;SDS011;16074;42.708;23.312;2022-08-16T12:28:36;11.73;;;10.53;;
787;SDS011;16074;42.708;23.312;2022-08-16T12:31:21;13.03;;;11.93;;
787;SDS011;16074;42.708;23.312;2022-08-16T12:33:50;12.53;;;11.33;;
787;SDS011;16074;42.708;23.312;2022-08-16T12:36:23;13.27;;;12.27;;
787;SDS011;16074;42.708;23.312;2022-08-16T12:38:55;13.97;;;12.70;;
787;SDS011;16074;42.708;23.312;2022-08-16T12:41:25;13.27;;;12.27;;
787;SDS011;16074;42.708;23.312;2022-08-16T12:44:00;13.90;;;12.57;;
787;SDS011;16074;42.708;23.312;2022-08-16T12:46:29;12.67;;;11.37;;
787;SDS011;16074;42.708;23.312;2022-08-16T12:48:58;11.47;;;10.47;;
787;SDS011;16074;42.708;23.312;2022-08-16T12:51:27;11.83;;;10.80;;
787;SDS011;16074;42.708;23.312;2022-08-16T12:54:18;12.80;;;11.43;;
787;SDS011;16074;42.708;23.312;2022-08-16T12:56:48;12.50;;;11.33;;
787;SDS011;16074;42.708;23.312;2022-08-16T12:59:16;10.53;;;9.70;;
787;SDS011;16074;42.708;23.312;2022-08-16T13:01:49;12.40;;;11.20;;
787;SDS011;16074;42.708;23.312;2022-08-16T13:04:24;11.13;;;10.20;;
787;SDS011;16074;42.708;23.312;2022-08-16T13:58:46;6.20;;;5.80;;
787;SDS011;16074;42.708;23.312;2022-08-16T14:01:21;6.77;;;6.10;;
787;SDS011;16074;42.708;23.312;2022-08-16T14:03:50;6.47;;;5.83;;
787;SDS011;16074;42.708;23.312;2022-08-16T14:06:20;6.30;;;5.70;;
787;SDS011;16074;42.708;23.312;2022-08-16T14:08:50;6.93;;;6.33;;
787;SDS011;16074;42.708;23.312;2022-08-16T14:11:32;6.70;;;6.20;;
787;SDS011;16074;42.708;23.312;2022-08-16T14:14:02;6.87;;;6.10;;
787;SDS011;16074;42.708;23.312;2022-08-16T14:16:32;6.23;;;5.73;;
787;SDS011;16074;42.708;23.312;2022-08-16T14:19:01;6.37;;;5.87;;
787;SDS011;16074;42.708;23.312;2022-08-16T14:21:32;6.87;;;6.30;;
787;SDS011;16074;42.708;23.312;2022-08-16T14:24:02;7.70;;;7.20;;
787;SDS011;16074;42.708;23.312;2022-08-16T14:26:48;7.00;;;6.47;;
787;SDS011;16074;42.708;23.312;2022-08-16T14:29:19;6.93;;;6.33;;
787;SDS011;16074;42.708;23.312;2022-08-16T14:31:48;6.50;;;6.07;;
787;SDS011;16074;42.708;23.312;2022-08-16T14:34:20;6.67;;;6.17;;
787;SDS011;16074;42.708;23.312;2022-08-16T14:36:51;7.27;;;6.73;;
787;SDS011;16074;42.708;23.312;2022-08-16T14:39:19;7.03;;;6.57;;
787;SDS011;16074;42.708;23.312;2022-08-16T14:41:48;6.83;;;6.27;;
787;SDS011;16074;42.708;23.312;2022-08-16T14:44:22;7.50;;;6.90;;
787;SDS011;16074;42.708;23.312;2022-08-16T14:46:53;7.23;;;6.73;;
787;SDS011;16074;42.708;23.312;2022-08-16T14:49:22;6.50;;;6.03;;
787;SDS011;16074;42.708;23.312;2022-08-16T14:51:50;6.40;;;5.87;;
787;SDS011;16074;42.708;23.312;2022-08-16T14:54:19;6.90;;;6.53;;
787;SDS011;16074;42.708;23.312;2022-08-16T14:56:54;7.03;;;6.63;;
787;SDS011;16074;42.708;23.312;2022-08-16T14:59:24;6.57;;;6.07;;
787;SDS011;16074;42.708;23.312;2022-08-16T15:01:55;6.80;;;6.30;;
787;SDS011;16074;42.708;23.312;2022-08-16T15:04:26;6.50;;;6.10;;
787;SDS011;16074;42.708;23.312;2022-08-16T15:07:14;6.30;;;5.90;;
787;SDS011;16074;42.708;23.312;2022-08-16T15:09:47;6.67;;;6.27;;
787;SDS011;16074;42.708;23.312;2022-08-16T15:12:27;6.77;;;6.27;;
787;SDS011;16074;42.708;23.312;2022-08-16T15:15:01;5.80;;;5.40;;
787;SDS011;16074;42.708;23.312;2022-08-16T15:17:42;5.83;;;5.43;;
787;SDS011;16074;42.708;23.312;2022-08-16T15:20:22;5.90;;;5.50;;
787;SDS011;16074;42.708;23.312;2022-08-16T15:22:52;5.90;;;5.50;;
787;SDS011;16074;42.708;23.312;2022-08-16T15:25:22;6.20;;;5.70;;
787;SDS011;16074;42.708;23.312;2022-08-16T15:27:54;6.57;;;5.97;;
787;SDS011;16074;42.708;23.312;2022-08-16T15:30:25;5.93;;;5.53;;
787;SDS011;16074;42.708;23.312;2022-08-16T15:33:14;7.17;;;6.53;;
787;SDS011;16074;42.708;23.312;2022-08-16T15:35:45;6.33;;;5.73;;
787;SDS011;16074;42.708;23.312;2022-08-16T15:38:15;5.93;;;5.53;;
787;SDS011;16074;42.708;23.312;2022-08-16T15:41:04;6.20;;;5.80;;
787;SDS011;16074;42.708;23.312;2022-08-16T15:43:32;6.00;;;5.40;;
787;SDS011;16074;42.708;23.312;2022-08-16T15:46:07;6.00;;;5.50;;
787;SDS011;16074;42.708;23.312;2022-08-16T15:49:11;6.60;;;5.93;;
787;SDS011;16074;42.708;23.312;2022-08-16T15:51:40;7.90;;;7.13;;
787;SDS011;16074;42.708;23.312;2022-08-16T15:54:11;7.67;;;6.67;;
787;SDS011;16074;42.708;23.312;2022-08-16T15:56:55;6.50;;;6.10;;
787;SDS011;16074;42.708;23.312;2022-08-16T15:59:36;7.47;;;6.87;;
787;SDS011;16074;42.708;23.312;2022-08-16T16:02:16;7.13;;;6.50;;
787;SDS011;16074;42.708;23.312;2022-08-16T16:04:57;7.30;;;6.80;;
787;SDS011;16074;42.708;23.312;2022-08-16T16:07:28;11.67;;;7.87;;
787;SDS011;16074;42.708;23.312;2022-08-16T16:09:59;8.27;;;7.67;;
787;SDS011;16074;42.708;23.312;2022-08-16T16:12:28;8.00;;;7.40;;
787;SDS011;16074;42.708;23.312;2022-08-16T16:15:17;8.03;;;7.30;;
787;SDS011;16074;42.708;23.312;2022-08-16T16:17:50;9.53;;;7.73;;
787;SDS011;16074;42.708;23.312;2022-08-16T16:20:18;8.80;;;8.20;;
787;SDS011;16074;42.708;23.312;2022-08-16T16:22:52;8.73;;;7.47;;
787;SDS011;16074;42.708;23.312;2022-08-16T16:25:23;8.53;;;7.73;;
787;SDS011;16074;42.708;23.312;2022-08-16T16:27:51;12.23;;;8.77;;
787;SDS011;16074;42.708;23.312;2022-08-16T16:30:26;10.17;;;9.10;;